createdAt,value
2023-03-20T00:01:17.694Z,20.07
2023-03-20T00:03:45.146Z,19.33
2023-03-20T00:06:13.887Z,20.60
2023-03-20T00:08:41.144Z,20.53
2023-03-20T00:11:20.550Z,20.27
2023-03-20T00:13:47.768Z,20.53
2023-03-20T00:16:14.881Z,22.00
2023-03-20T00:18:42.469Z,20.57
2023-03-20T00:21:19.625Z,20.67
2023-03-20T00:23:47.710Z,20.90
2023-03-20T00:26:15.848Z,19.87
2023-03-20T00:28:44.020Z,20.33
2023-03-20T00:31:29.792Z,18.53
2023-03-20T00:33:58.041Z,19.50
2023-03-20T00:36:25.431Z,18.97
2023-03-20T00:38:52.681Z,19.53
2023-03-20T00:41:25.406Z,21.17
2023-03-20T00:43:54.729Z,20.13
2023-03-20T00:46:21.971Z,20.47
2023-03-20T00:48:49.204Z,21.33
2023-03-20T00:51:16.284Z,20.50
2023-03-20T00:53:43.394Z,23.50
2023-03-20T00:56:29.574Z,24.90
2023-03-20T00:58:56.952Z,23.97
2023-03-20T01:01:24.209Z,22.40
2023-03-20T01:03:51.636Z,23.70
2023-03-20T01:06:19.047Z,23.10
2023-03-20T01:08:46.357Z,24.23
2023-03-20T01:11:13.950Z,24.93
2023-03-20T01:13:41.563Z,23.33
2023-03-20T01:16:18.369Z,23.40
2023-03-20T01:18:45.634Z,24.20
2023-03-20T01:21:12.773Z,26.23
2023-03-20T01:23:39.990Z,25.93
2023-03-20T01:26:18.865Z,25.83
2023-03-20T01:28:46.046Z,26.80
2023-03-20T01:31:13.080Z,27.63
2023-03-20T01:33:40.176Z,28.47
2023-03-20T01:36:07.567Z,27.57
2023-03-20T01:38:34.659Z,29.73
2023-03-20T01:41:16.635Z,28.77
2023-03-20T01:43:44.119Z,27.53
2023-03-20T01:46:30.731Z,28.83
2023-03-20T01:49:30.126Z,28.60
2023-03-20T01:51:57.807Z,30.17
2023-03-20T01:54:27.700Z,32.43
2023-03-20T01:56:57.503Z,29.97
2023-03-20T01:59:33.985Z,30.37
2023-03-20T02:02:01.158Z,29.90
2023-03-20T02:04:31.833Z,30.70
2023-03-20T02:06:59.106Z,29.60
2023-03-20T02:09:30.987Z,28.80
2023-03-20T02:11:58.436Z,28.53
2023-03-20T02:14:26.825Z,29.27
2023-03-20T02:16:54.272Z,27.93
2023-03-20T02:19:25.813Z,28.27
2023-03-20T02:22:17.321Z,27.70
2023-03-20T02:25:15.751Z,27.20
2023-03-20T02:28:02.801Z,27.27
2023-03-20T02:30:31.199Z,27.57
2023-03-20T02:33:33.802Z,26.27
2023-03-20T02:36:12.905Z,27.30
2023-03-20T02:38:45.949Z,26.87
2023-03-20T02:41:25.051Z,26.57
2023-03-20T02:43:52.055Z,25.33
2023-03-20T02:46:27.028Z,26.17
2023-03-20T02:48:57.704Z,25.67
2023-03-20T02:51:43.000Z,24.90
2023-03-20T02:54:16.231Z,24.47
2023-03-20T02:56:43.491Z,24.87
2023-03-20T02:59:29.328Z,23.47
2023-03-20T03:02:06.453Z,24.17
2023-03-20T03:04:36.632Z,23.67
2023-03-20T03:07:05.335Z,24.47
2023-03-20T03:09:35.510Z,24.47
2023-03-20T03:12:08.683Z,22.83
2023-03-20T03:14:40.963Z,22.73
2023-03-20T03:17:09.181Z,23.50
2023-03-20T03:19:37.699Z,25.23
2023-03-20T03:22:05.792Z,23.97
2023-03-20T03:24:41.146Z,22.90
2023-03-20T03:27:13.939Z,22.67
2023-03-20T03:29:42.422Z,22.27
2023-03-20T03:32:21.538Z,22.30
2023-03-20T03:34:49.192Z,21.53
2023-03-20T03:37:45.857Z,21.40
2023-03-20T03:40:19.764Z,21.27
2023-03-20T03:43:09.768Z,20.27
2023-03-20T03:45:42.000Z,21.70
2023-03-20T03:48:11.902Z,21.50
2023-03-20T03:50:48.289Z,23.07
2023-03-20T03:53:16.665Z,22.37
2023-03-20T03:55:50.896Z,21.10
2023-03-20T03:58:22.365Z,23.13
2023-03-20T04:00:51.948Z,23.10
2023-03-20T04:03:20.500Z,23.63
2023-03-20T04:05:47.801Z,23.50
2023-03-20T04:08:16.462Z,23.83
2023-03-20T04:10:43.538Z,25.63
2023-03-20T04:13:11.830Z,25.80
2023-03-20T04:15:38.953Z,24.37
2023-03-20T04:18:06.568Z,22.80
2023-03-20T04:20:33.798Z,24.10
2023-03-20T04:23:01.861Z,23.17
2023-03-20T04:25:28.939Z,24.53
2023-03-20T04:27:56.036Z,23.30
2023-03-20T04:30:23.112Z,22.67
2023-03-20T04:32:50.344Z,23.80
2023-03-20T04:35:17.556Z,24.27
2023-03-20T04:37:44.614Z,23.07
2023-03-20T04:40:12.235Z,21.83
2023-03-20T04:42:39.433Z,23.13
2023-03-20T04:45:07.486Z,21.17
2023-03-20T04:47:34.600Z,21.60
2023-03-20T04:50:01.668Z,20.50
2023-03-20T04:52:28.748Z,20.80
2023-03-20T04:54:55.926Z,21.03
2023-03-20T04:57:23.085Z,20.77
2023-03-20T04:59:50.149Z,19.67
2023-03-20T05:02:17.962Z,20.67
2023-03-20T05:04:45.107Z,19.23
2023-03-20T05:07:12.242Z,20.57
2023-03-20T05:09:39.293Z,19.30
2023-03-20T05:12:06.579Z,19.67
2023-03-20T05:14:33.615Z,19.17
2023-03-20T05:17:00.886Z,19.53
2023-03-20T05:19:28.033Z,19.70
2023-03-20T05:21:55.485Z,20.10
2023-03-20T05:24:22.556Z,18.37
2023-03-20T05:26:49.620Z,20.10
2023-03-20T05:29:16.717Z,18.90
2023-03-20T05:31:43.778Z,19.23
2023-03-20T05:34:11.077Z,18.67
2023-03-20T05:36:38.196Z,20.33
2023-03-20T05:39:05.612Z,19.17
2023-03-20T05:41:32.709Z,20.57
2023-03-20T05:43:59.739Z,19.73
2023-03-20T05:46:26.864Z,18.97
2023-03-20T05:48:54.569Z,18.83
2023-03-20T05:51:21.882Z,18.53
2023-03-20T05:53:48.920Z,18.77
2023-03-20T05:56:16.009Z,17.30
2023-03-20T05:58:43.093Z,17.00
2023-03-20T06:01:10.463Z,16.90
2023-03-20T06:03:37.569Z,15.90
2023-03-20T06:06:04.950Z,16.67
2023-03-20T06:08:32.049Z,14.83
2023-03-20T06:10:59.176Z,14.67
2023-03-20T06:13:26.215Z,14.13
2023-03-20T06:15:53.303Z,14.50
2023-03-20T06:18:20.682Z,12.97
2023-03-20T06:20:52.527Z,14.07
2023-03-20T06:23:19.591Z,14.37
2023-03-20T06:25:46.715Z,13.50
2023-03-20T06:28:14.041Z,12.20
2023-03-20T06:30:41.105Z,12.40
2023-03-20T06:33:08.612Z,12.10
2023-03-20T06:35:36.220Z,11.53
2023-03-20T06:38:03.415Z,10.67
2023-03-20T06:40:30.622Z,11.87
2023-03-20T06:42:57.836Z,11.37
2023-03-20T06:45:24.875Z,10.70
2023-03-20T06:47:51.957Z,11.23
2023-03-20T06:50:19.035Z,10.83
2023-03-20T06:52:46.497Z,10.53
2023-03-20T06:55:13.785Z,10.87
2023-03-20T06:57:41.287Z,10.67
2023-03-20T07:00:10.163Z,10.97
2023-03-20T07:02:37.204Z,9.97
2023-03-20T07:05:04.496Z,10.20
2023-03-20T07:07:31.613Z,10.27
2023-03-20T07:09:58.700Z,10.07
2023-03-20T07:12:28.578Z,9.60
2023-03-20T07:14:56.103Z,10.00
2023-03-20T07:17:23.503Z,10.60
2023-03-20T07:19:50.748Z,10.70
2023-03-20T07:22:22.743Z,9.87
2023-03-20T07:24:50.004Z,9.40
2023-03-20T07:27:17.868Z,9.57
2023-03-20T07:29:45.498Z,10.13
2023-03-20T07:32:12.594Z,8.83
2023-03-20T07:34:39.663Z,8.90
2023-03-20T07:37:07.186Z,8.70
2023-03-20T07:39:34.213Z,8.50
2023-03-20T07:42:01.358Z,8.70
2023-03-20T07:44:28.426Z,8.70
2023-03-20T07:46:55.524Z,8.70
2023-03-20T07:49:22.711Z,8.70
2023-03-20T07:51:51.777Z,8.67
2023-03-20T07:54:19.228Z,9.53
2023-03-20T07:56:46.673Z,8.33
2023-03-20T07:59:14.194Z,9.03
2023-03-20T08:01:41.277Z,8.60
2023-03-20T08:04:08.836Z,8.70
2023-03-20T08:06:36.470Z,9.30
2023-03-20T08:09:04.224Z,8.63
2023-03-20T08:11:33.793Z,8.87
2023-03-20T08:14:01.390Z,7.63
2023-03-20T08:16:28.586Z,8.83
2023-03-20T08:19:01.039Z,8.33
2023-03-20T08:21:29.826Z,9.40
2023-03-20T08:23:57.402Z,9.57
2023-03-20T08:26:24.598Z,8.33
2023-03-20T08:28:52.668Z,9.10
2023-03-20T08:31:20.073Z,8.10
2023-03-20T08:33:47.646Z,8.27
2023-03-20T08:36:15.864Z,8.50
2023-03-20T08:38:43.357Z,8.93
2023-03-20T08:41:10.441Z,8.77
2023-03-20T08:43:37.582Z,8.33
2023-03-20T08:46:04.893Z,8.87
2023-03-20T08:48:31.944Z,8.00
2023-03-20T08:50:59.069Z,7.60
2023-03-20T08:53:26.239Z,6.97
2023-03-20T08:55:53.721Z,7.20
2023-03-20T08:58:21.481Z,6.03
2023-03-20T09:00:48.667Z,6.83
2023-03-20T09:03:16.434Z,6.53
2023-03-20T09:05:47.680Z,7.00
2023-03-20T09:08:14.821Z,5.63
2023-03-20T09:10:42.212Z,5.43
2023-03-20T09:13:25.809Z,5.60
2023-03-20T09:15:54.286Z,6.33
2023-03-20T09:18:21.528Z,5.07
2023-03-20T09:20:49.269Z,5.13
2023-03-20T09:23:16.832Z,5.10
2023-03-20T09:25:43.959Z,4.63
2023-03-20T09:28:11.224Z,4.20
2023-03-20T09:30:38.863Z,4.47
2023-03-20T09:33:06.693Z,3.90
2023-03-20T09:35:33.886Z,4.20
2023-03-20T09:38:01.334Z,3.40
2023-03-20T09:40:30.653Z,3.77
2023-03-20T09:43:30.097Z,3.83
2023-03-20T09:46:03.571Z,4.03
2023-03-20T09:48:48.494Z,3.90
2023-03-20T09:51:25.355Z,4.23
2023-03-20T09:53:58.657Z,6.50
2023-03-20T09:56:29.036Z,3.93
2023-03-20T09:58:57.474Z,3.97
2023-03-20T10:01:26.922Z,3.40
2023-03-20T10:03:56.369Z,3.97
2023-03-20T10:06:23.479Z,4.33
2023-03-20T10:08:52.246Z,3.80
2023-03-20T10:11:19.498Z,3.83
2023-03-20T10:13:53.891Z,3.57
2023-03-20T10:16:28.787Z,4.17
2023-03-20T10:19:14.884Z,3.77
2023-03-20T10:21:44.823Z,4.17
2023-03-20T10:24:32.726Z,3.87
2023-03-20T10:27:03.083Z,3.57
2023-03-20T10:29:47.564Z,3.70
2023-03-20T10:32:20.500Z,3.60
2023-03-20T10:34:50.368Z,3.17
2023-03-20T10:37:20.325Z,2.97
2023-03-20T10:39:56.198Z,3.03
2023-03-20T10:42:26.077Z,2.80
2023-03-20T10:45:02.773Z,3.10
2023-03-20T10:47:32.436Z,2.67
2023-03-20T10:50:01.582Z,19.33
2023-03-20T10:52:36.178Z,25.70
2023-03-20T10:55:06.646Z,7.57
2023-03-20T10:57:36.330Z,6.30
2023-03-20T11:00:04.946Z,2.80
2023-03-20T11:02:32.783Z,2.57
2023-03-20T11:05:01.776Z,2.50
2023-03-20T11:07:36.288Z,3.93
2023-03-20T11:10:06.310Z,2.70
2023-03-20T11:12:44.047Z,3.17
2023-03-20T11:15:13.928Z,3.53
2023-03-20T11:17:41.537Z,4.80
2023-03-20T11:20:08.876Z,3.30
2023-03-20T11:22:37.216Z,2.73
2023-03-20T11:25:04.623Z,2.90
2023-03-20T11:27:33.291Z,3.13
2023-03-20T11:30:05.002Z,3.00
2023-03-20T11:32:36.274Z,4.37
2023-03-20T11:35:18.872Z,3.43
2023-03-20T11:37:47.630Z,3.20
2023-03-20T11:40:14.726Z,4.10
2023-03-20T11:42:52.471Z,3.40
2023-03-20T11:45:19.660Z,2.87
2023-03-20T11:47:50.925Z,3.20
2023-03-20T11:50:30.139Z,3.60
2023-03-20T11:52:57.225Z,3.80
2023-03-20T11:55:27.370Z,3.87
2023-03-20T11:57:58.968Z,3.10
2023-03-20T12:00:29.129Z,3.20
2023-03-20T12:02:56.250Z,2.90
2023-03-20T12:05:33.997Z,2.73
2023-03-20T12:08:06.342Z,2.70
2023-03-20T12:10:37.150Z,4.17
2023-03-20T12:13:13.494Z,3.60
2023-03-20T12:16:00.834Z,3.17
2023-03-20T12:18:30.679Z,2.90
2023-03-20T12:21:13.377Z,2.60
2023-03-20T12:23:40.576Z,3.17
2023-03-20T12:26:12.812Z,2.93
2023-03-20T12:28:45.691Z,2.70
2023-03-20T12:31:24.785Z,2.73
2023-03-20T12:34:01.086Z,3.00
2023-03-20T12:36:39.345Z,3.20
2023-03-20T12:39:08.022Z,3.17
2023-03-20T12:41:53.622Z,3.13
2023-03-20T12:44:43.930Z,2.87
2023-03-20T12:47:32.917Z,3.10
2023-03-20T12:49:59.929Z,3.30
2023-03-20T12:52:36.264Z,3.17
2023-03-20T12:55:29.583Z,3.63
2023-03-20T12:58:04.539Z,3.57
2023-03-20T13:00:39.037Z,3.33
2023-03-20T13:03:06.293Z,3.13
2023-03-20T13:05:41.053Z,3.70
2023-03-20T13:08:32.517Z,4.07
2023-03-20T13:11:05.886Z,3.40
2023-03-20T13:13:42.117Z,3.60
2023-03-20T13:16:27.296Z,3.70
2023-03-20T13:18:59.648Z,4.20
2023-03-20T13:21:33.387Z,4.30
2023-03-20T13:24:16.488Z,3.80
2023-03-20T13:26:51.886Z,3.97
2023-03-20T13:29:28.183Z,4.00
2023-03-20T13:32:04.231Z,3.67
2023-03-20T13:34:46.450Z,3.47
2023-03-20T13:37:23.334Z,4.20
2023-03-20T13:40:12.112Z,4.43
2023-03-20T13:42:54.315Z,3.10
2023-03-20T13:45:32.026Z,3.60
2023-03-20T13:48:01.016Z,3.20
2023-03-20T13:50:38.273Z,3.47
2023-03-20T13:53:11.725Z,3.13
2023-03-20T13:55:46.996Z,3.30
2023-03-20T13:58:20.125Z,3.67
2023-03-20T14:00:51.567Z,3.07
2023-03-20T14:03:19.522Z,3.27
2023-03-20T14:05:47.461Z,3.27
2023-03-20T14:08:33.640Z,3.37
2023-03-20T14:11:09.014Z,2.93
2023-03-20T14:13:36.581Z,4.27
2023-03-20T14:16:08.140Z,10.90
2023-03-20T14:18:36.225Z,3.43
2023-03-20T14:21:04.991Z,3.10
2023-03-20T14:23:36.383Z,3.30
2023-03-20T14:26:23.597Z,3.40
2023-03-20T14:29:01.080Z,3.37
2023-03-20T14:31:34.293Z,3.67
2023-03-20T14:34:09.528Z,4.70
2023-03-20T14:36:55.490Z,4.00
2023-03-20T14:39:40.970Z,5.70
2023-03-20T14:42:24.448Z,5.73
2023-03-20T14:44:52.047Z,12.60
2023-03-20T14:47:28.379Z,5.63
2023-03-20T14:50:01.669Z,9.97
2023-03-20T14:52:33.886Z,9.30
2023-03-20T14:55:19.840Z,18.77
2023-03-20T14:57:56.868Z,9.13
2023-03-20T15:00:27.325Z,6.00
2023-03-20T15:03:14.662Z,5.60
2023-03-20T15:05:42.239Z,5.17
2023-03-20T15:08:17.043Z,5.73
2023-03-20T15:10:59.138Z,5.87
2023-03-20T15:13:26.838Z,5.10
2023-03-20T15:15:54.094Z,5.83
2023-03-20T15:18:22.106Z,6.33
2023-03-20T15:20:49.344Z,5.33
2023-03-20T15:23:16.382Z,5.83
2023-03-20T15:25:44.626Z,6.03
2023-03-20T15:28:18.706Z,5.87
2023-03-20T15:30:47.292Z,6.67
2023-03-20T15:33:19.799Z,6.60
2023-03-20T15:35:47.217Z,6.80
2023-03-20T15:38:15.931Z,7.23
2023-03-20T15:40:50.941Z,4.90
2023-03-20T15:43:25.631Z,4.67
2023-03-20T15:46:02.937Z,4.87
2023-03-20T15:48:33.799Z,4.87
2023-03-20T15:51:04.934Z,6.13
2023-03-20T15:53:33.629Z,5.87
2023-03-20T15:56:17.814Z,6.03
2023-03-20T15:58:46.256Z,5.80
2023-03-20T16:01:18.011Z,6.27
2023-03-20T16:03:45.547Z,7.27
2023-03-20T16:06:16.492Z,10.10
2023-03-20T16:08:45.604Z,7.43
2023-03-20T16:11:16.916Z,8.00
2023-03-20T16:13:47.986Z,7.53
2023-03-20T16:16:17.346Z,7.90
2023-03-20T16:18:47.822Z,7.43
2023-03-20T16:21:21.094Z,7.43
2023-03-20T16:23:53.216Z,9.53
2023-03-20T16:26:21.444Z,9.73
2023-03-20T16:28:50.763Z,8.50
2023-03-20T16:31:19.959Z,8.87
2023-03-20T16:33:47.680Z,8.80
2023-03-20T16:36:20.787Z,9.30
2023-03-20T16:38:55.851Z,8.80
2023-03-20T16:41:22.899Z,8.87
2023-03-20T16:43:51.271Z,8.93
2023-03-20T16:46:21.880Z,9.60
2023-03-20T16:48:51.282Z,9.23
2023-03-20T16:51:21.522Z,8.73
2023-03-20T16:53:50.605Z,9.53
2023-03-20T16:56:22.328Z,8.87
2023-03-20T16:58:49.769Z,8.57
2023-03-20T17:01:21.372Z,9.63
2023-03-20T17:03:59.329Z,8.50
2023-03-20T17:06:36.748Z,8.23
2023-03-20T17:09:17.790Z,8.37
2023-03-20T17:11:52.651Z,8.60
2023-03-20T17:14:19.753Z,8.10
2023-03-20T17:16:46.911Z,7.90
2023-03-20T17:19:15.912Z,10.03
2023-03-20T17:21:43.503Z,9.03
2023-03-20T17:24:11.303Z,8.53
2023-03-20T17:26:38.862Z,8.33
2023-03-20T17:29:10.714Z,8.53
2023-03-20T17:31:37.770Z,13.90
2023-03-20T17:34:04.862Z,9.87
2023-03-20T17:36:32.898Z,8.50
2023-03-20T17:39:00.369Z,8.43
2023-03-20T17:41:28.326Z,8.57
2023-03-20T17:43:58.223Z,8.30
2023-03-20T17:46:27.226Z,8.00
2023-03-20T17:49:14.572Z,8.00
2023-03-20T17:51:41.867Z,8.03
2023-03-20T17:54:08.949Z,8.80
2023-03-20T17:56:36.668Z,9.60
2023-03-20T17:59:04.334Z,9.33
2023-03-20T18:01:32.844Z,12.10
2023-03-20T18:04:00.482Z,16.00
2023-03-20T18:06:31.654Z,11.40
2023-03-20T18:09:00.360Z,11.23
2023-03-20T18:11:27.807Z,9.70
2023-03-20T18:13:54.914Z,12.00
2023-03-20T18:16:23.671Z,12.50
2023-03-20T18:18:51.497Z,12.53
2023-03-20T18:21:18.984Z,11.23
2023-03-20T18:23:46.313Z,12.73
2023-03-20T18:26:23.978Z,17.63
2023-03-20T18:28:52.173Z,12.97
2023-03-20T18:31:19.406Z,11.60
2023-03-20T18:33:47.361Z,13.27
2023-03-20T18:36:18.643Z,38.30
2023-03-20T18:38:45.932Z,15.90
2023-03-20T18:41:12.980Z,14.70
2023-03-20T18:43:40.708Z,27.33
2023-03-20T18:46:12.176Z,14.80
2023-03-20T18:48:39.222Z,20.93
2023-03-20T18:51:06.367Z,46.03
2023-03-20T18:53:33.408Z,55.90
2023-03-20T18:56:03.954Z,17.80
2023-03-20T18:58:31.425Z,11.90
2023-03-20T19:00:59.645Z,11.13
2023-03-20T19:03:28.455Z,10.73
2023-03-20T19:05:57.556Z,9.70
2023-03-20T19:08:24.770Z,10.43
2023-03-20T19:10:51.927Z,11.07
2023-03-20T19:13:20.234Z,9.97
2023-03-20T19:15:47.637Z,10.30
2023-03-20T19:18:17.734Z,10.20
2023-03-20T19:20:45.919Z,10.20
2023-03-20T19:23:14.642Z,8.70
2023-03-20T19:25:43.384Z,9.53
2023-03-20T19:28:21.647Z,9.20
2023-03-20T19:30:49.497Z,8.90
2023-03-20T19:33:16.628Z,8.30
2023-03-20T19:36:01.882Z,8.27
2023-03-20T19:38:30.277Z,8.17
2023-03-20T19:40:57.989Z,7.87
2023-03-20T19:43:25.212Z,8.57
2023-03-20T19:45:58.363Z,8.00
2023-03-20T19:48:27.651Z,9.60
2023-03-20T19:50:56.102Z,9.77
2023-03-20T19:53:26.512Z,8.67
2023-03-20T19:55:55.625Z,8.07
2023-03-20T19:58:22.782Z,7.87
2023-03-20T20:00:58.897Z,9.23
2023-03-20T20:03:27.198Z,8.20
2023-03-20T20:05:54.902Z,7.83
2023-03-20T20:08:38.926Z,8.67
2023-03-20T20:11:14.399Z,8.93
2023-03-20T20:14:03.830Z,9.27
2023-03-20T20:16:29.197Z,9.17
2023-03-20T20:18:56.468Z,6.97
2023-03-20T20:24:10.656Z,8.97
2023-03-20T20:26:41.240Z,8.07
2023-03-20T20:29:16.367Z,8.50
2023-03-20T20:31:44.398Z,8.10
2023-03-20T20:39:46.166Z,7.77
2023-03-20T20:42:13.383Z,8.47
2023-03-20T20:44:41.234Z,7.93
2023-03-20T20:47:08.626Z,7.00
2023-03-20T20:49:36.038Z,7.60
2023-03-20T20:52:03.663Z,7.47
2023-03-20T20:54:30.831Z,9.03
2023-03-20T20:56:57.931Z,7.43
2023-03-20T20:59:24.956Z,7.10
2023-03-20T21:01:53.592Z,8.10
2023-03-20T21:04:21.053Z,6.97
2023-03-20T21:07:08.482Z,6.17
2023-03-20T21:09:35.217Z,7.47
2023-03-20T21:12:03.073Z,6.60
2023-03-20T21:14:30.568Z,6.57
2023-03-20T21:17:00.859Z,7.77
2023-03-20T21:19:33.694Z,11.83
2023-03-20T21:22:00.780Z,7.87
2023-03-20T21:24:33.633Z,6.53
2023-03-20T21:27:06.678Z,7.70
2023-03-20T21:29:34.015Z,6.93
2023-03-20T21:32:01.273Z,6.67
2023-03-20T21:34:29.073Z,7.37
2023-03-20T21:36:57.452Z,7.80
2023-03-20T21:39:25.514Z,6.63
2023-03-20T21:41:52.543Z,7.07
2023-03-20T21:44:48.282Z,7.87
2023-03-20T21:48:01.007Z,7.93
2023-03-20T21:56:23.555Z,6.80
2023-03-20T22:07:18.926Z,7.60
2023-03-20T22:15:33.819Z,7.03
2023-03-20T22:18:21.497Z,6.97
2023-03-20T22:21:17.125Z,7.60
2023-03-20T22:24:09.594Z,6.83
2023-03-20T22:27:05.265Z,7.43
2023-03-20T22:29:41.855Z,7.37
2023-03-20T22:32:44.943Z,8.10
2023-03-20T22:38:02.429Z,7.90
2023-03-20T22:40:57.500Z,8.40
2023-03-20T22:43:53.197Z,7.57
2023-03-20T22:45:52.067Z,8.10
2023-03-20T22:48:26.897Z,8.03
2023-03-20T22:50:54.227Z,8.07
2023-03-20T22:53:21.324Z,7.97
2023-03-20T22:55:52.274Z,8.30
2023-03-20T22:58:19.338Z,7.97
2023-03-20T23:00:46.425Z,8.20
2023-03-20T23:03:25.596Z,7.43
2023-03-20T23:05:54.071Z,7.63
2023-03-20T23:08:21.732Z,9.23
2023-03-20T23:10:49.743Z,8.23
2023-03-20T23:13:17.273Z,8.20
2023-03-20T23:15:47.190Z,8.47
2023-03-20T23:18:14.653Z,9.40
2023-03-20T23:20:41.895Z,8.40
2023-03-20T23:23:09.201Z,8.40
2023-03-20T23:25:39.647Z,9.37
2023-03-20T23:28:08.288Z,8.10
2023-03-20T23:30:46.550Z,8.90
2023-03-20T23:33:16.787Z,9.50
2023-03-20T23:35:45.193Z,9.10
2023-03-20T23:38:12.259Z,10.00
2023-03-20T23:40:39.667Z,8.60
2023-03-20T23:43:06.779Z,9.57
2023-03-20T23:45:33.859Z,8.97
2023-03-20T23:48:01.018Z,9.47
2023-03-20T23:50:39.587Z,10.03
2023-03-20T23:53:20.741Z,9.23
2023-03-20T23:55:48.905Z,10.73
2023-03-20T23:58:16.424Z,9.93
